Time;durP1;ratioP1;P1;durP2;ratioP2;P2;SDS_P1;SDS_P2;PMS_P1;PMS_P2;Temp;Humidity;BMP_temperature;BMP_pressure;BME280_temperature;BME280_humidity;BME280_pressure;Samples;Min_cycle;Max_cycle;Signal;HPM_P1;HPM_P2
2022/08/02 00:03:03;;;;;;;11.73;2.55;;;18.40;99.90;;;;;;6312555;28;20293;-67
2022/08/02 00:06:11;;;;;;;17.00;3.35;;;18.30;99.90;;;;;;6312974;28;20270;-67
2022/08/02 00:09:17;;;;;;;11.23;2.40;;;18.30;99.90;;;;;;6310083;28;20473;-67
2022/08/02 00:12:25;;;;;;;11.85;1.85;;;18.30;99.90;;;;;;6312739;28;20582;-68
2022/08/02 00:15:30;;;;;;;19.20;2.45;;;18.30;99.90;;;;;;6312669;28;20266;-67
2022/08/02 00:18:37;;;;;;;18.52;2.63;;;18.30;99.90;;;;;;6312826;28;20597;-67
2022/08/02 00:21:45;;;;;;;13.20;2.53;;;18.20;99.90;;;;;;6312361;28;20309;-67
2022/08/02 00:24:50;;;;;;;5.65;2.20;;;18.30;99.90;;;;;;6312042;28;20290;-67
2022/08/02 00:27:55;;;;;;;14.40;2.65;;;18.20;99.90;;;;;;6312326;28;20294;-67
2022/08/02 00:31:00;;;;;;;17.00;2.90;;;18.20;99.90;;;;;;6312461;28;20266;-68
2022/08/02 00:34:07;;;;;;;13.73;2.50;;;18.20;99.90;;;;;;6312714;28;20274;-67
2022/08/02 00:37:32;;;;;;;22.58;2.80;;;18.20;99.90;;;;;;6312161;28;20298;-67
2022/08/02 00:40:38;;;;;;;32.53;3.00;;;18.20;99.90;;;;;;6312447;28;20270;-67
2022/08/02 00:43:43;;;;;;;20.45;2.78;;;18.20;99.90;;;;;;6312283;28;20294;-67
2022/08/02 00:46:49;;;;;;;23.20;3.17;;;18.10;99.90;;;;;;6312026;28;20598;-67
2022/08/02 00:49:55;;;;;;;22.83;2.50;;;18.10;99.90;;;;;;6312117;28;20290;-66
2022/08/02 00:53:01;;;;;;;9.88;2.58;;;18.10;99.90;;;;;;6311817;28;20299;-66
2022/08/02 00:56:07;;;;;;;14.73;2.83;;;18.10;99.90;;;;;;6311801;28;20426;-67
2022/08/02 00:59:12;;;;;;;11.68;2.63;;;18.00;99.90;;;;;;6311811;28;20274;-67
2022/08/02 01:02:19;;;;;;;20.20;2.60;;;18.00;99.90;;;;;;6310952;28;20290;-66
2022/08/02 01:05:26;;;;;;;21.52;3.08;;;18.00;99.90;;;;;;6311830;28;20317;-66
2022/08/02 01:08:31;;;;;;;9.98;3.10;;;17.90;99.90;;;;;;6311000;28;20302;-66
2022/08/02 01:11:37;;;;;;;15.32;2.70;;;17.90;99.90;;;;;;6310814;28;20289;-67
2022/08/02 01:14:44;;;;;;;26.88;2.95;;;17.90;99.90;;;;;;6311000;28;20270;-67
2022/08/02 01:17:55;;;;;;;26.42;3.72;;;17.80;99.90;;;;;;6310936;28;20293;-67
2022/08/02 01:21:17;;;;;;;34.75;3.88;;;17.80;99.90;;;;;;6310925;28;20270;-67
2022/08/02 01:24:41;;;;;;;28.75;3.72;;;17.90;99.90;;;;;;6311623;28;20270;-66
2022/08/02 01:28:05;;;;;;;28.48;3.50;;;17.80;99.90;;;;;;6310782;28;20298;-67
2022/08/02 01:31:20;;;;;;;20.95;3.10;;;17.80;99.90;;;;;;6310432;28;20271;-67
2022/08/02 01:34:34;;;;;;;18.05;3.10;;;17.80;99.90;;;;;;6311514;28;20274;-67
2022/08/02 01:37:43;;;;;;;25.67;3.20;;;17.80;99.90;;;;;;6309828;28;20294;-67
2022/08/02 01:40:50;;;;;;;17.75;3.03;;;17.70;99.90;;;;;;6311067;28;20334;-67
2022/08/02 01:43:59;;;;;;;13.80;3.38;;;17.70;99.90;;;;;;6310800;28;20294;-67
2022/08/02 01:47:07;;;;;;;21.75;2.97;;;17.70;99.90;;;;;;6311124;28;20293;-67
2022/08/02 01:50:17;;;;;;;30.25;2.70;;;17.70;99.90;;;;;;6311022;28;20294;-67
2022/08/02 01:53:24;;;;;;;8.18;2.50;;;17.60;99.90;;;;;;6310126;28;20313;-66
2022/08/02 01:56:29;;;;;;;12.45;2.42;;;17.60;99.90;;;;;;6310543;28;20462;-66
2022/08/02 01:59:36;;;;;;;10.75;2.70;;;17.60;99.90;;;;;;6311464;28;20274;-67
2022/08/02 02:02:46;;;;;;;7.32;2.28;;;17.50;99.90;;;;;;6309888;28;20290;-67
2022/08/02 02:05:53;;;;;;;21.45;2.72;;;17.50;99.90;;;;;;6310514;28;20271;-67
2022/08/02 02:08:59;;;;;;;18.00;3.97;;;17.50;99.90;;;;;;6306790;28;20291;-67
2022/08/02 02:12:06;;;;;;;8.63;2.75;;;17.50;99.90;;;;;;6310391;28;20294;-67
2022/08/02 02:15:20;;;;;;;9.85;2.42;;;17.40;99.90;;;;;;6310558;28;20499;-67
2022/08/02 02:18:27;;;;;;;12.60;2.22;;;17.40;99.90;;;;;;6310402;28;20298;-67
2022/08/02 02:21:33;;;;;;;8.13;2.00;;;17.40;99.90;;;;;;6310155;28;20290;-66
2022/08/02 02:24:39;;;;;;;5.00;2.05;;;17.50;99.90;;;;;;6310658;28;20269;-67
2022/08/02 02:27:53;;;;;;;2.00;1.85;;;17.40;99.90;;;;;;6309857;28;20298;-66
2022/08/02 02:31:07;;;;;;;8.23;1.92;;;17.50;99.90;;;;;;6310392;28;20287;-67
2022/08/02 02:34:16;;;;;;;8.15;2.17;;;17.40;99.90;;;;;;6309735;28;20274;-67
2022/08/02 02:37:23;;;;;;;5.78;1.95;;;17.40;99.90;;;;;;6309861;28;20326;-67
2022/08/02 02:40:30;;;;;;;7.70;2.28;;;17.40;99.90;;;;;;6310124;28;20270;-67
2022/08/02 02:43:35;;;;;;;7.15;2.08;;;17.30;99.90;;;;;;6309931;28;20294;-67
2022/08/02 02:46:45;;;;;;;3.65;1.88;;;17.30;99.90;;;;;;6309680;28;20293;-67
2022/08/02 02:49:51;;;;;;;4.00;2.20;;;17.20;99.90;;;;;;6315042;28;20471;-67
2022/08/02 02:52:57;;;;;;;2.00;1.90;;;17.30;99.90;;;;;;6314747;28;20299;-67
2022/08/02 02:56:03;;;;;;;1.90;1.88;;;17.30;99.90;;;;;;6314204;28;20270;-67
2022/08/02 02:59:10;;;;;;;1.90;1.90;;;17.30;99.90;;;;;;6314662;28;20453;-67
2022/08/02 03:02:17;;;;;;;1.88;1.80;;;17.30;99.90;;;;;;6309768;28;20274;-67
2022/08/02 03:05:23;;;;;;;1.60;1.60;;;17.30;99.90;;;;;;6311910;28;20459;-68
2022/08/02 03:08:29;;;;;;;1.80;1.80;;;17.30;99.90;;;;;;6294906;28;20298;-67
2022/08/02 03:11:36;;;;;;;1.88;1.88;;;17.20;99.90;;;;;;6314567;28;20287;-67
2022/08/02 03:14:43;;;;;;;1.83;1.83;;;17.20;99.90;;;;;;6314168;28;20367;-67
2022/08/02 03:17:54;;;;;;;1.63;1.63;;;17.10;99.90;;;;;;6314076;28;20290;-67
2022/08/02 03:21:01;;;;;;;2.30;2.20;;;17.10;99.90;;;;;;6309307;28;20266;-67
2022/08/02 03:24:07;;;;;;;2.05;1.90;;;17.10;99.90;;;;;;6314324;28;20306;-67
2022/08/02 03:27:12;;;;;;;1.98;1.98;;;17.10;99.90;;;;;;6313741;28;20262;-67
2022/08/02 03:30:18;;;;;;;1.70;1.70;;;17.10;99.90;;;;;;6313685;28;20289;-67
2022/08/02 03:33:26;;;;;;;1.67;1.67;;;17.10;99.90;;;;;;6313746;28;20378;-67
2022/08/02 03:36:33;;;;;;;2.00;1.90;;;16.90;99.90;;;;;;6314246;28;20533;-67
2022/08/02 03:39:39;;;;;;;2.05;1.95;;;16.80;99.90;;;;;;6313890;28;20469;-67
2022/08/02 03:42:57;;;;;;;2.10;2.00;;;16.90;99.90;;;;;;6313154;28;20290;-67
2022/08/02 03:46:04;;;;;;;2.03;1.92;;;16.90;99.90;;;;;;6313796;28;20362;-67
2022/08/02 03:49:12;;;;;;;1.85;1.85;;;16.90;99.90;;;;;;6313322;28;20306;-67
2022/08/02 03:52:17;;;;;;;1.75;1.65;;;16.80;99.90;;;;;;6313299;28;20495;-67
2022/08/02 03:55:23;;;;;;;1.98;1.88;;;16.70;99.90;;;;;;6313970;28;20266;-67
2022/08/02 03:58:28;;;;;;;1.88;1.88;;;16.70;99.90;;;;;;6312403;28;20299;-67
2022/08/02 04:01:33;;;;;;;3.65;2.00;;;16.50;99.90;;;;;;6313198;28;20270;-67
2022/08/02 04:04:40;;;;;;;2.28;1.95;;;16.50;99.90;;;;;;6312259;28;20598;-67
2022/08/02 04:07:47;;;;;;;3.13;2.30;;;16.50;99.90;;;;;;6312674;28;20290;-67
2022/08/02 04:11:30;;;;;;;1.92;1.92;;;16.50;99.90;;;;;;6310384;28;20282;-67
2022/08/02 04:14:36;;;;;;;2.40;2.30;;;16.60;99.90;;;;;;6312609;28;20290;-67
2022/08/02 04:17:46;;;;;;;2.50;2.30;;;16.50;99.90;;;;;;6312671;28;20389;-67
2022/08/02 04:20:53;;;;;;;2.30;2.28;;;16.40;99.90;;;;;;6313014;28;20270;-67
2022/08/02 04:23:59;;;;;;;2.10;2.10;;;16.40;99.90;;;;;;6312829;28;20298;-66
2022/08/02 04:27:05;;;;;;;2.08;2.08;;;16.40;99.90;;;;;;6312767;28;20271;-66
2022/08/02 04:30:31;;;;;;;2.30;2.20;;;16.50;99.90;;;;;;6312175;28;20274;-67
2022/08/02 04:33:37;;;;;;;4.40;2.30;;;16.50;99.90;;;;;;6312136;28;20316;-67
2022/08/02 04:36:43;;;;;;;2.30;2.20;;;16.50;99.90;;;;;;6311968;28;20281;-67
2022/08/02 04:39:49;;;;;;;3.28;2.25;;;16.50;99.90;;;;;;6312189;28;20298;-67
2022/08/02 04:42:54;;;;;;;2.10;2.10;;;16.60;99.90;;;;;;6311592;28;20313;-68
2022/08/02 04:46:01;;;;;;;2.10;2.10;;;16.50;99.90;;;;;;6312333;28;20270;-68
2022/08/02 04:49:07;;;;;;;1.80;1.80;;;16.40;99.90;;;;;;6311779;28;20618;-66
2022/08/02 04:52:14;;;;;;;2.40;2.30;;;16.40;99.90;;;;;;6312291;28;20293;-67
2022/08/02 04:55:19;;;;;;;2.30;2.20;;;16.30;99.90;;;;;;6311248;28;20278;-67
2022/08/02 04:58:26;;;;;;;2.60;2.15;;;16.40;99.90;;;;;;6311307;28;20302;-67
2022/08/02 05:01:47;;;;;;;2.33;2.33;;;16.30;99.90;;;;;;6311619;28;20274;-67
2022/08/02 05:04:52;;;;;;;2.33;2.22;;;16.30;99.90;;;;;;6311345;28;20610;-67
2022/08/02 05:07:59;;;;;;;2.28;2.10;;;16.20;99.90;;;;;;6311097;28;20290;-67
2022/08/02 05:11:04;;;;;;;2.13;2.10;;;16.20;99.90;;;;;;6311247;28;20266;-67
2022/08/02 05:14:10;;;;;;;2.08;1.98;;;16.20;99.90;;;;;;6311200;28;20296;-67
2022/08/02 05:17:16;;;;;;;2.28;2.20;;;16.20;99.90;;;;;;6310666;28;20274;-66
2022/08/02 05:20:21;;;;;;;2.67;2.20;;;16.10;99.90;;;;;;6311244;28;20270;-67
2022/08/02 05:23:28;;;;;;;2.28;2.22;;;16.10;99.90;;;;;;6311052;28;20298;-68
2022/08/02 05:26:33;;;;;;;2.20;2.10;;;16.00;99.90;;;;;;6311078;28;20275;-67
2022/08/02 05:29:38;;;;;;;2.53;2.40;;;16.00;99.90;;;;;;6310489;28;20301;-67
2022/08/02 05:32:57;;;;;;;2.40;2.30;;;16.00;99.90;;;;;;6310408;28;20298;-67
2022/08/02 05:36:02;;;;;;;2.72;2.50;;;16.00;99.90;;;;;;6311334;28;20270;-68
2022/08/02 05:39:09;;;;;;;2.60;2.40;;;15.90;99.90;;;;;;6310815;28;20294;-67
2022/08/02 05:42:16;;;;;;;2.60;2.60;;;16.00;99.90;;;;;;6310364;28;20306;-67
2022/08/02 05:45:22;;;;;;;2.50;2.40;;;15.90;99.90;;;;;;6310783;28;20266;-67
2022/08/02 05:48:27;;;;;;;2.50;2.15;;;15.90;99.90;;;;;;6310683;28;20294;-68
2022/08/02 05:51:38;;;;;;;2.25;2.05;;;15.90;99.90;;;;;;6311429;28;20270;-68
2022/08/02 05:54:50;;;;;;;2.00;1.90;;;15.90;99.90;;;;;;6310574;28;20598;-67
2022/08/02 05:58:03;;;;;;;2.10;2.10;;;16.00;99.90;;;;;;6311095;28;20322;-67
2022/08/02 06:01:12;;;;;;;1.90;1.90;;;16.10;99.90;;;;;;6310535;28;20305;-66
2022/08/02 06:04:24;;;;;;;1.80;1.80;;;16.10;99.90;;;;;;6310101;28;20314;-66
2022/08/02 06:07:31;;;;;;;1.85;1.85;;;16.10;99.90;;;;;;6310420;28;20271;-67
2022/08/02 06:10:38;;;;;;;2.08;2.08;;;16.10;99.90;;;;;;6307625;28;20266;-67
2022/08/02 06:13:44;;;;;;;3.28;1.70;;;16.20;99.90;;;;;;6309715;28;20298;-67
2022/08/02 06:16:50;;;;;;;2.67;1.73;;;16.30;99.90;;;;;;6310533;28;20279;-67
2022/08/02 06:19:57;;;;;;;1.73;1.73;;;16.30;99.90;;;;;;6310087;28;20290;-67
2022/08/02 06:23:05;;;;;;;1.65;1.60;;;16.40;99.90;;;;;;6312501;28;20294;-66
2022/08/02 06:26:17;;;;;;;1.95;1.80;;;16.50;99.90;;;;;;6315523;28;20275;-67
2022/08/02 06:29:23;;;;;;;1.60;1.60;;;16.60;99.90;;;;;;6314466;28;20298;-67
2022/08/02 06:32:28;;;;;;;1.70;1.70;;;16.60;99.90;;;;;;6314838;28;20293;-67
2022/08/02 06:35:39;;;;;;;1.50;1.50;;;16.70;99.90;;;;;;6315134;28;20270;-67
2022/08/02 06:38:49;;;;;;;1.88;1.67;;;16.60;99.90;;;;;;6314955;28;20298;-66
2022/08/02 06:42:00;;;;;;;1.50;1.50;;;16.60;99.90;;;;;;6315053;28;20294;-67
2022/08/02 06:45:16;;;;;;;1.55;1.55;;;16.60;99.90;;;;;;6296945;28;20283;-67
2022/08/02 06:48:21;;;;;;;1.40;1.40;;;16.60;99.90;;;;;;6314602;28;20294;-67
2022/08/02 06:51:27;;;;;;;1.40;1.40;;;16.70;99.90;;;;;;6315091;28;20542;-67
2022/08/02 06:54:33;;;;;;;1.60;1.60;;;16.50;99.90;;;;;;6314498;28;20302;-67
2022/08/02 06:57:40;;;;;;;1.60;1.60;;;16.70;99.90;;;;;;6313967;28;20295;-67
2022/08/02 07:00:45;;;;;;;1.48;1.48;;;16.80;99.90;;;;;;6314935;28;20274;-67
2022/08/02 07:03:50;;;;;;;1.60;1.60;;;16.70;99.90;;;;;;6314310;28;20289;-66
2022/08/02 07:06:56;;;;;;;3.30;1.60;;;16.90;99.90;;;;;;6314625;28;20266;-66
2022/08/02 07:10:01;;;;;;;1.60;1.50;;;17.00;99.90;;;;;;6313477;28;20309;-66
2022/08/02 07:13:09;;;;;;;4.20;1.40;;;17.10;99.90;;;;;;6314603;28;20306;-67
2022/08/02 07:16:14;;;;;;;1.73;1.63;;;17.20;99.90;;;;;;6313784;28;20274;-67
2022/08/02 07:19:19;;;;;;;1.85;1.70;;;17.30;99.90;;;;;;6313675;28;20484;-67
2022/08/02 07:22:27;;;;;;;1.48;1.48;;;17.30;99.90;;;;;;6313372;28;20275;-67
2022/08/02 07:25:32;;;;;;;1.48;1.48;;;17.40;99.90;;;;;;6313834;28;20278;-67
2022/08/02 07:28:59;;;;;;;1.77;1.67;;;17.50;99.90;;;;;;6313494;28;20295;-67
2022/08/02 07:32:04;;;;;;;1.67;1.60;;;17.60;99.90;;;;;;6313923;28;20554;-66
2022/08/02 07:35:12;;;;;;;1.70;1.60;;;17.70;99.90;;;;;;6312816;28;20302;-67
2022/08/02 07:38:23;;;;;;;1.58;1.52;;;17.70;99.90;;;;;;6313763;28;20598;-67
2022/08/02 07:41:30;;;;;;;1.67;1.58;;;17.90;99.90;;;;;;6313839;28;20298;-68
2022/08/02 07:44:36;;;;;;;1.38;1.38;;;18.00;99.90;;;;;;6313292;28;20297;-68
2022/08/02 07:47:44;;;;;;;1.58;1.58;;;17.90;99.90;;;;;;6313956;28;20295;-67
2022/08/02 07:50:50;;;;;;;1.73;1.73;;;18.00;99.90;;;;;;6313783;28;20203;-67
2022/08/02 07:53:55;;;;;;;1.77;1.63;;;17.90;99.90;;;;;;6312716;28;20570;-67
2022/08/02 07:57:11;;;;;;;6.32;2.00;;;18.00;99.90;;;;;;6313509;28;20400;-66
2022/08/02 08:00:18;;;;;;;1.55;1.55;;;18.10;99.90;;;;;;6312220;28;20278;-68
2022/08/02 08:03:23;;;;;;;1.88;1.60;;;18.10;99.90;;;;;;6312772;28;20298;-68
2022/08/02 08:06:29;;;;;;;1.73;1.73;;;18.10;99.90;;;;;;6313632;28;20275;-67
2022/08/02 08:09:38;;;;;;;3.40;1.75;;;18.20;99.90;;;;;;6310691;28;20298;-67
2022/08/02 08:12:43;;;;;;;2.15;2.05;;;18.00;99.90;;;;;;6304127;28;20302;-67
2022/08/02 08:15:50;;;;;;;1.90;1.80;;;18.10;99.90;;;;;;6313358;28;20290;-67
2022/08/02 08:18:56;;;;;;;1.80;1.80;;;18.30;99.90;;;;;;6312787;28;20294;-66
2022/08/02 08:22:02;;;;;;;1.50;1.40;;;18.20;99.90;;;;;;6312715;28;20270;-67
2022/08/02 08:25:08;;;;;;;1.88;1.88;;;18.20;99.90;;;;;;6312060;28;20311;-67
2022/08/02 08:28:13;;;;;;;1.60;1.60;;;18.20;99.90;;;;;;6312315;28;20322;-68
2022/08/02 08:31:20;;;;;;;1.80;1.70;;;18.20;99.90;;;;;;6313406;28;20270;-68
2022/08/02 08:34:30;;;;;;;1.83;1.73;;;18.30;99.90;;;;;;6312073;28;20298;-67
2022/08/02 08:37:36;;;;;;;2.28;2.28;;;18.30;99.90;;;;;;6312145;28;20415;-67
2022/08/02 08:40:43;;;;;;;3.67;1.70;;;18.30;99.90;;;;;;6312489;28;20459;-68
2022/08/02 08:43:48;;;;;;;1.55;1.55;;;18.30;99.90;;;;;;6327251;28;20294;-66
2022/08/02 08:46:59;;;;;;;1.55;1.55;;;18.30;99.90;;;;;;6311750;28;20270;-67
2022/08/02 08:50:08;;;;;;;1.92;1.92;;;18.50;99.90;;;;;;6311570;28;20294;-67
2022/08/02 08:53:23;;;;;;;2.05;1.50;;;18.50;99.90;;;;;;6311336;28;20298;-67
2022/08/02 08:56:41;;;;;;;1.40;1.40;;;18.50;99.90;;;;;;6312349;28;20286;-68
2022/08/02 08:59:46;;;;;;;2.47;2.38;;;18.50;99.90;;;;;;6311585;28;20298;-66
2022/08/02 09:02:53;;;;;;;5.57;1.38;;;18.50;99.90;;;;;;6311678;28;20290;-68
2022/08/02 09:05:59;;;;;;;6.47;1.83;;;18.60;99.90;;;;;;6311694;28;20274;-67
2022/08/02 09:09:04;;;;;;;1.38;1.20;;;18.70;99.90;;;;;;6311511;28;20614;-68
2022/08/02 09:12:15;;;;;;;1.52;1.42;;;18.60;99.90;;;;;;6311557;28;20268;-67
2022/08/02 09:15:25;;;;;;;1.90;1.80;;;18.60;99.90;;;;;;6311115;28;20290;-67
2022/08/02 09:18:32;;;;;;;1.52;1.40;;;18.50;99.80;;;;;;6310947;28;20290;-67
2022/08/02 09:21:38;;;;;;;1.95;1.30;;;18.60;99.90;;;;;;6311121;28;20275;-67
2022/08/02 09:24:46;;;;;;;1.10;1.10;;;18.80;99.60;;;;;;6310755;28;20294;-67
2022/08/02 09:27:52;;;;;;;1.23;1.20;;;18.90;99.50;;;;;;6310458;28;20286;-67
2022/08/02 09:31:03;;;;;;;1.60;1.10;;;19.00;98.90;;;;;;6311210;28;20460;-67
2022/08/02 09:34:10;;;;;;;1.33;1.25;;;19.10;99.30;;;;;;6310685;28;20294;-67
2022/08/02 09:37:24;;;;;;;2.05;1.35;;;19.10;98.40;;;;;;6310411;28;20298;-67
2022/08/02 09:40:36;;;;;;;1.70;1.60;;;19.20;98.10;;;;;;6310106;28;20274;-68
2022/08/02 09:43:42;;;;;;;1.10;1.02;;;19.20;97.90;;;;;;6310459;28;20294;-67
2022/08/02 09:47:15;;;;;;;3.95;1.30;;;19.20;98.00;;;;;;6305573;28;20274;-68
2022/08/02 09:50:22;;;;;;;1.00;1.00;;;19.30;97.60;;;;;;6310070;28;20358;-65
2022/08/02 09:53:27;;;;;;;1.20;1.20;;;19.30;97.70;;;;;;6310157;28;20294;-67
2022/08/02 09:56:45;;;;;;;1.10;1.08;;;19.40;97.80;;;;;;6309624;28;20333;-68
2022/08/02 09:59:54;;;;;;;2.85;1.27;;;19.40;97.10;;;;;;6309874;28;20299;-68
2022/08/02 10:03:07;;;;;;;1.10;1.10;;;19.40;97.20;;;;;;6310027;28;20286;-67
2022/08/02 10:06:17;;;;;;;2.15;1.25;;;19.50;97.40;;;;;;6310203;28;20329;-67
2022/08/02 10:09:23;;;;;;;1.10;1.10;;;19.60;97.40;;;;;;6309867;28;20298;-68
2022/08/02 10:12:28;;;;;;;1.00;1.00;;;19.60;96.90;;;;;;6308593;28;20275;-68
2022/08/02 10:15:34;;;;;;;1.00;1.00;;;19.70;96.40;;;;;;6310236;28;20471;-67
2022/08/02 10:18:39;;;;;;;1.17;0.80;;;19.70;95.60;;;;;;6309685;28;20318;-67
2022/08/02 10:21:52;;;;;;;1.40;1.30;;;19.60;94.90;;;;;;6310191;28;20430;-67
2022/08/02 10:24:58;;;;;;;1.73;1.05;;;19.70;95.50;;;;;;6309822;28;20303;-67
2022/08/02 10:28:04;;;;;;;1.25;1.05;;;19.80;95.20;;;;;;6309710;28;20305;-68
2022/08/02 10:31:10;;;;;;;3.92;1.00;;;19.90;95.60;;;;;;6309931;28;20290;-68
2022/08/02 10:34:20;;;;;;;0.90;0.90;;;20.00;95.50;;;;;;6309730;28;20496;-68
2022/08/02 10:37:31;;;;;;;1.88;0.90;;;20.10;94.70;;;;;;6310363;28;20298;-66
2022/08/02 10:40:45;;;;;;;0.93;0.93;;;20.20;95.10;;;;;;6309686;28;20267;-68
2022/08/02 10:43:50;;;;;;;1.00;1.00;;;20.20;93.10;;;;;;6310030;28;20294;-68
2022/08/02 10:47:21;;;;;;;0.82;0.82;;;20.30;93.10;;;;;;6309817;28;20558;-68
2022/08/02 10:50:55;;;;;;;0.80;0.80;;;20.40;92.40;;;;;;6309382;28;20274;-67
2022/08/02 10:54:09;;;;;;;0.70;0.70;;;20.40;91.50;;;;;;6309519;28;20295;-67
2022/08/02 10:57:21;;;;;;;0.80;0.80;;;20.50;91.40;;;;;;6309201;28;20294;-67
2022/08/02 11:00:27;;;;;;;12.70;1.90;;;20.60;90.30;;;;;;6310402;28;20275;-66
2022/08/02 11:03:39;;;;;;;1.40;0.70;;;20.70;88.80;;;;;;6309666;28;20302;-66
2022/08/02 11:07:10;;;;;;;0.60;0.60;;;20.60;87.10;;;;;;6310072;28;20278;-67
2022/08/02 11:10:34;;;;;;;2.55;0.80;;;20.80;90.60;;;;;;6312743;28;20282;-66
2022/08/02 11:14:02;;;;;;;2.55;0.80;;;20.90;89.00;;;;;;6313897;28;20298;-66
2022/08/02 11:17:13;;;;;;;0.90;0.90;;;21.10;87.20;;;;;;6314414;28;20290;-67
2022/08/02 11:20:20;;;;;;;0.70;0.70;;;21.20;87.80;;;;;;6313767;28;20267;-68
2022/08/02 11:23:37;;;;;;;0.80;0.80;;;21.30;86.40;;;;;;6313488;28;20294;-68
2022/08/02 11:26:52;;;;;;;1.02;1.02;;;21.40;86.70;;;;;;6314956;28;20279;-67
2022/08/02 11:29:57;;;;;;;1.00;1.00;;;21.50;89.00;;;;;;6313422;28;20294;-67
2022/08/02 11:33:02;;;;;;;1.48;1.35;;;21.50;87.80;;;;;;6313289;28;20290;-67
2022/08/02 11:36:08;;;;;;;1.00;1.00;;;21.60;88.80;;;;;;6313638;28;20444;-67
2022/08/02 11:39:15;;;;;;;0.90;0.90;;;21.50;88.00;;;;;;6313392;28;20294;-67
2022/08/02 11:42:22;;;;;;;1.45;0.90;;;21.50;90.40;;;;;;6313805;28;20298;-67
2022/08/02 11:45:27;;;;;;;0.90;0.90;;;21.60;89.40;;;;;;6313392;28;20270;-66
2022/08/02 11:48:37;;;;;;;2.65;0.90;;;21.60;90.40;;;;;;6313460;28;20310;-66
2022/08/02 11:52:00;;;;;;;0.80;0.80;;;21.70;88.80;;;;;;6313829;28;20271;-68
2022/08/02 11:55:07;;;;;;;0.80;0.80;;;21.70;90.00;;;;;;6313470;28;20298;-68
2022/08/02 11:58:14;;;;;;;3.97;0.82;;;21.70;90.40;;;;;;6313565;28;20484;-67
2022/08/02 12:01:19;;;;;;;0.80;0.80;;;21.60;89.60;;;;;;6313366;28;20265;-67
2022/08/02 12:04:26;;;;;;;0.75;0.75;;;21.50;89.50;;;;;;6312899;28;20302;-68
2022/08/02 12:07:38;;;;;;;2.15;1.05;;;21.50;89.40;;;;;;6312294;28;20416;-67
2022/08/02 12:10:50;;;;;;;0.70;0.70;;;21.60;91.30;;;;;;6310138;28;20262;-67
2022/08/02 12:13:57;;;;;;;2.38;0.90;;;21.70;87.80;;;;;;6313172;28;20298;-67
2022/08/02 12:20:36;;;;;;;3.50;0.80;;;21.70;86.00;;;;;;6311313;28;20278;-67
2022/08/02 12:23:43;;;;;;;0.70;0.70;;;21.80;88.80;;;;;;6312036;28;20578;-66
2022/08/02 12:27:04;;;;;;;0.73;0.73;;;21.90;86.30;;;;;;6312116;28;20322;-67
2022/08/02 12:30:15;;;;;;;0.82;0.82;;;22.00;83.10;;;;;;6312094;28;20295;-67
2022/08/02 12:33:46;;;;;;;0.80;0.80;;;22.00;80.60;;;;;;6311714;28;20302;-67
2022/08/02 12:37:03;;;;;;;0.60;0.60;;;22.00;79.60;;;;;;6312102;28;20270;-67
2022/08/02 12:40:26;;;;;;;0.70;0.70;;;22.10;83.60;;;;;;6311579;28;20291;-67
2022/08/02 12:43:31;;;;;;;1.70;0.80;;;22.10;85.30;;;;;;6286823;28;20300;-67
2022/08/02 12:46:38;;;;;;;1.23;0.70;;;22.00;81.70;;;;;;6287621;28;20271;-67
2022/08/02 12:50:11;;;;;;;0.90;0.80;;;22.00;78.00;;;;;;6286947;28;20299;-68
2022/08/02 12:53:18;;;;;;;1.10;1.10;;;22.00;78.10;;;;;;6287125;28;20303;-68
2022/08/02 12:56:31;;;;;;;0.85;0.60;;;22.10;75.60;;;;;;6287657;28;20271;-68
2022/08/02 12:59:40;;;;;;;0.70;0.70;;;22.10;77.40;;;;;;6287068;28;20303;-68
2022/08/02 13:02:46;;;;;;;2.53;0.90;;;22.20;69.30;;;;;;6286065;28;20295;-68
2022/08/02 13:05:52;;;;;;;0.80;0.80;;;22.20;71.20;;;;;;6287167;28;20282;-68
2022/08/02 13:09:03;;;;;;;0.73;0.73;;;22.20;70.00;;;;;;6285058;28;20347;-68
2022/08/02 13:12:10;;;;;;;0.73;0.73;;;22.30;70.30;;;;;;6306689;28;20453;-67
2022/08/02 13:15:16;;;;;;;1.10;0.73;;;22.50;74.30;;;;;;6311073;28;20278;-68
2022/08/02 13:18:44;;;;;;;4.10;0.70;;;22.60;71.90;;;;;;6310291;28;20298;-68
2022/08/02 13:21:49;;;;;;;0.80;0.80;;;22.50;68.60;;;;;;6311277;28;20453;-68
2022/08/02 13:25:07;;;;;;;0.73;0.73;;;22.40;65.40;;;;;;6311165;28;20294;-68
2022/08/02 13:28:15;;;;;;;1.65;0.50;;;22.40;70.90;;;;;;6310681;28;20302;-68
2022/08/02 13:31:20;;;;;;;0.63;0.63;;;22.60;69.10;;;;;;6311474;28;20270;-67
2022/08/02 13:34:42;;;;;;;2.65;0.70;;;22.50;65.10;;;;;;6310563;28;20295;-67
2022/08/02 13:37:47;;;;;;;0.70;0.70;;;22.50;68.30;;;;;;6310587;28;20298;-68
2022/08/02 13:41:12;;;;;;;1.17;0.60;;;22.70;67.00;;;;;;6311259;28;20465;-68
2022/08/02 13:44:18;;;;;;;0.70;0.70;;;22.50;65.80;;;;;;6310497;28;20299;-68
2022/08/02 13:47:23;;;;;;;0.85;0.85;;;22.70;69.60;;;;;;6310243;28;20270;-68
2022/08/02 13:50:42;;;;;;;1.52;0.73;;;22.70;66.80;;;;;;6311336;28;20323;-67
2022/08/02 13:53:47;;;;;;;2.40;0.70;;;22.70;67.90;;;;;;6302149;28;20301;-68
2022/08/02 13:56:52;;;;;;;1.80;1.00;;;22.80;68.10;;;;;;6310782;28;20554;-68
2022/08/02 13:59:58;;;;;;;0.70;0.70;;;22.80;65.30;;;;;;6310140;28;20302;-68
2022/08/02 14:03:07;;;;;;;1.02;0.80;;;23.00;67.90;;;;;;6309933;28;20494;-67
2022/08/02 14:06:17;;;;;;;2.92;1.42;;;23.10;65.50;;;;;;6310433;28;20268;-67
2022/08/02 14:09:23;;;;;;;5.03;4.72;;;23.20;63.60;;;;;;6309765;28;20620;-69
2022/08/02 14:12:28;;;;;;;2.08;1.80;;;23.20;65.20;;;;;;6307966;28;20549;-67
2022/08/02 14:15:33;;;;;;;1.88;1.60;;;23.00;65.90;;;;;;6310190;28;20275;-68
2022/08/02 14:18:38;;;;;;;1.40;1.30;;;22.90;73.70;;;;;;6309290;28;20586;-67
2022/08/02 14:21:45;;;;;;;3.92;1.20;;;23.50;79.80;;;;;;6310117;28;20270;-68
2022/08/02 14:24:52;;;;;;;1.48;1.40;;;23.10;80.60;;;;;;6309944;28;20307;-68
2022/08/02 14:27:57;;;;;;;3.17;1.73;;;23.30;80.70;;;;;;6309563;28;20289;-67
2022/08/02 14:31:02;;;;;;;1.60;1.40;;;23.20;83.70;;;;;;6309957;28;20274;-67
2022/08/02 14:34:07;;;;;;;1.33;1.23;;;23.10;85.70;;;;;;6309773;28;20294;-66
2022/08/02 14:37:14;;;;;;;2.65;1.40;;;22.90;86.90;;;;;;6309427;28;20270;-66
2022/08/02 14:40:20;;;;;;;3.83;1.20;;;23.00;88.10;;;;;;6308931;28;20294;-68
2022/08/02 14:46:59;;;;;;;1.88;1.13;;;23.10;86.00;;;;;;6314694;28;20279;-68
2022/08/02 14:50:05;;;;;;;3.60;1.15;;;23.20;87.40;;;;;;6314697;28;20298;-67
2022/08/02 14:53:13;;;;;;;2.10;2.00;;;23.20;89.10;;;;;;6313364;28;20432;-67
2022/08/02 14:56:18;;;;;;;2.10;2.10;;;23.30;90.10;;;;;;6314064;28;20274;-68
2022/08/02 14:59:23;;;;;;;2.78;1.75;;;23.30;90.50;;;;;;6314017;28;20298;-67
2022/08/02 15:02:28;;;;;;;3.58;1.55;;;23.40;90.30;;;;;;6313566;28;20270;-67
2022/08/02 15:05:34;;;;;;;4.53;1.30;;;23.40;91.20;;;;;;6314667;28;20270;-67
2022/08/02 15:08:40;;;;;;;3.60;1.25;;;23.30;90.90;;;;;;6313710;28;20298;-67
2022/08/02 15:11:46;;;;;;;1.35;1.35;;;23.20;90.50;;;;;;6313849;28;20440;-68
2022/08/02 15:14:53;;;;;;;1.27;1.27;;;23.10;90.60;;;;;;6314389;28;20342;-68
2022/08/02 15:17:59;;;;;;;1.40;1.30;;;23.10;90.60;;;;;;6314310;28;20491;-68
2022/08/02 15:21:04;;;;;;;2.30;1.50;;;23.20;90.60;;;;;;6313747;28;20294;-68
2022/08/02 15:24:31;;;;;;;1.10;1.10;;;23.20;91.20;;;;;;6313860;28;20299;-67
2022/08/02 15:27:36;;;;;;;1.85;1.30;;;23.20;90.70;;;;;;6313599;28;20476;-67
2022/08/02 15:30:43;;;;;;;1.40;1.40;;;23.20;89.40;;;;;;6314539;28;20294;-67
2022/08/02 15:33:49;;;;;;;1.05;1.05;;;23.20;88.20;;;;;;6313401;28;20581;-67
2022/08/02 15:36:54;;;;;;;1.30;1.30;;;23.20;87.30;;;;;;6296057;28;20275;-67
2022/08/02 15:40:01;;;;;;;3.90;1.45;;;23.20;87.50;;;;;;6313643;28;20299;-67
2022/08/02 15:43:06;;;;;;;1.33;1.30;;;23.30;88.90;;;;;;6312933;28;20299;-68
2022/08/02 15:46:14;;;;;;;1.85;1.40;;;23.30;89.10;;;;;;6313349;28;20271;-67
2022/08/02 15:49:22;;;;;;;1.40;1.30;;;23.30;88.80;;;;;;6312819;28;20299;-66
2022/08/02 15:52:28;;;;;;;1.10;1.10;;;23.30;82.50;;;;;;6312892;28;20270;-67
2022/08/02 15:55:38;;;;;;;1.08;1.00;;;23.40;81.50;;;;;;6311848;28;20275;-68
2022/08/02 15:59:03;;;;;;;3.33;1.30;;;23.40;81.90;;;;;;6312413;28;20302;-67
2022/08/02 16:02:09;;;;;;;3.05;1.73;;;23.30;80.20;;;;;;6313817;28;20374;-67
2022/08/02 16:05:16;;;;;;;3.28;1.33;;;23.20;82.10;;;;;;6311678;28;20270;-68
2022/08/02 16:08:22;;;;;;;3.78;1.30;;;23.10;83.60;;;;;;6312312;28;20298;-68
2022/08/02 16:11:29;;;;;;;1.00;1.00;;;23.00;84.40;;;;;;6309276;28;20270;-68
2022/08/02 16:14:34;;;;;;;13.65;5.30;;;23.00;84.90;;;;;;6312473;28;20298;-69
2022/08/02 16:17:40;;;;;;;3.00;2.83;;;22.80;86.20;;;;;;6312606;28;20285;-69
2022/08/02 16:20:57;;;;;;;7.03;3.40;;;22.70;85.10;;;;;;6312378;28;20290;-68
2022/08/02 16:24:03;;;;;;;1.58;1.20;;;22.70;85.80;;;;;;6312471;28;20297;-68
2022/08/02 16:27:12;;;;;;;1.40;1.30;;;22.80;85.90;;;;;;6312597;28;20270;-67
2022/08/02 16:30:17;;;;;;;5.38;1.60;;;22.80;86.10;;;;;;6311620;28;20312;-67